ΕΜΥ, Εθνική Μετεωρολογική Υπηρεσία - Δελτία Καιρού, Προγνώσεις

ΑΕΡΟΝΑΥΤΙΛΙΑ

GREEK AIRPORTS CODES

TAF LGSR 162300Z 1700/1724 15015KT 9999 SCT020 TEMPO 1709/1712 13015G25KT BECMG 1717/1719 26012KT=

EUROPEAN AIRPORTS CODES

LFPO 170300Z AUTO 28005KT CAVOK 06/03 Q1015 TEMPO SCT030TCU=